Time;durP1;ratioP1;P1;durP2;ratioP2;P2;SDS_P1;SDS_P2;PMS_P1;PMS_P2;Temp;Humidity;BMP_temperature;BMP_pressure;BME280_temperature;BME280_humidity;BME280_pressure;Samples;Min_cycle;Max_cycle;Signal;HPM_P1;HPM_P2
2023/10/11 00:00:25;;;;;;;15.20;7.90;;;;;;;;;;5059530;28;20040;-61
2023/10/11 00:02:51;;;;;;;18.03;7.93;;;;;;;;;;5063208;28;20052;-61
2023/10/11 00:05:17;;;;;;;15.93;8.10;;;;;;;;;;5048530;28;20098;-62
2023/10/11 00:07:44;;;;;;;17.57;7.83;;;;;;;;;;5048602;28;20469;-61
2023/10/11 00:10:19;;;;;;;20.17;8.23;;;;;;;;;;5048425;28;20415;-61
2023/10/11 00:12:45;;;;;;;14.97;8.63;;;;;;;;;;5048277;28;20094;-61
2023/10/11 00:15:11;;;;;;;19.67;8.57;;;;;;;;;;5048278;28;20052;-61
2023/10/11 00:17:37;;;;;;;15.30;8.90;;;;;;;;;;5049444;28;20049;-61
2023/10/11 00:20:15;;;;;;;17.43;9.30;;;;;;;;;;5057593;28;20406;-61
2023/10/11 00:22:42;;;;;;;13.13;9.63;;;;;;;;;;5068735;28;20079;-61
2023/10/11 00:25:09;;;;;;;21.07;9.90;;;;;;;;;;5050412;28;20384;-61
2023/10/11 00:27:36;;;;;;;19.33;10.63;;;;;;;;;;5048270;28;20059;-61
2023/10/11 00:30:02;;;;;;;18.27;10.07;;;;;;;;;;5047925;28;20056;-61
2023/10/11 00:32:28;;;;;;;18.37;10.37;;;;;;;;;;5047823;28;20553;-61
2023/10/11 00:34:54;;;;;;;26.00;10.33;;;;;;;;;;5055633;28;20051;-61
2023/10/11 00:37:20;;;;;;;23.07;11.03;;;;;;;;;;5057164;28;20051;-61
2023/10/11 00:39:46;;;;;;;21.70;10.60;;;;;;;;;;5067325;28;20056;-61
2023/10/11 00:42:13;;;;;;;21.80;12.23;;;;;;;;;;5047770;28;20072;-61
2023/10/11 00:44:40;;;;;;;17.50;10.40;;;;;;;;;;5048204;28;20045;-61
2023/10/11 00:47:08;;;;;;;22.17;11.23;;;;;;;;;;5048030;28;20085;-61
2023/10/11 00:49:39;;;;;;;22.53;11.67;;;;;;;;;;5047819;28;20473;-61
2023/10/11 00:52:09;;;;;;;27.90;12.33;;;;;;;;;;5047885;28;20499;-62
2023/10/11 00:54:37;;;;;;;22.90;11.53;;;;;;;;;;5047117;28;20091;-61
2023/10/11 00:57:04;;;;;;;21.57;12.33;;;;;;;;;;5048144;28;20128;-61
2023/10/11 00:59:30;;;;;;;26.70;12.37;;;;;;;;;;5047589;28;20446;-61
2023/10/11 01:01:58;;;;;;;26.13;12.70;;;;;;;;;;5047813;28;20076;-62
2023/10/11 01:04:33;;;;;;;31.93;13.13;;;;;;;;;;5047170;28;20053;-61
2023/10/11 01:06:59;;;;;;;24.20;12.03;;;;;;;;;;5047592;28;20083;-61
2023/10/11 01:09:28;;;;;;;22.43;12.40;;;;;;;;;;5047811;28;20064;-62
2023/10/11 01:11:54;;;;;;;22.23;12.53;;;;;;;;;;5047425;28;20049;-62
2023/10/11 01:14:23;;;;;;;30.30;13.43;;;;;;;;;;5054496;28;20525;-61
2023/10/11 01:16:51;;;;;;;27.33;13.17;;;;;;;;;;5067169;28;20053;-62
2023/10/11 01:19:18;;;;;;;25.13;14.30;;;;;;;;;;5067559;28;20589;-61
2023/10/11 01:21:51;;;;;;;22.70;13.77;;;;;;;;;;5067558;28;20083;-61
2023/10/11 01:24:17;;;;;;;24.20;13.53;;;;;;;;;;5067105;28;20070;-61
2023/10/11 01:26:43;;;;;;;23.57;13.37;;;;;;;;;;5066016;28;20047;-61
2023/10/11 01:29:09;;;;;;;28.33;14.07;;;;;;;;;;5067424;28;20048;-61
2023/10/11 01:31:36;;;;;;;29.50;13.10;;;;;;;;;;5065480;28;20525;-61
2023/10/11 01:34:02;;;;;;;24.80;14.63;;;;;;;;;;5066297;28;20048;-61
2023/10/11 01:36:28;;;;;;;33.03;13.63;;;;;;;;;;5067150;28;20048;-61
2023/10/11 01:38:54;;;;;;;25.90;13.33;;;;;;;;;;5067329;28;20127;-61
2023/10/11 01:41:27;;;;;;;21.60;14.23;;;;;;;;;;5067295;28;20044;-61
2023/10/11 01:43:53;;;;;;;27.05;13.18;;;;;;;;;;5066910;28;20048;-61
2023/10/11 01:46:26;;;;;;;26.47;13.93;;;;;;;;;;5067415;28;20044;-61
2023/10/11 01:48:52;;;;;;;23.98;13.50;;;;;;;;;;5067508;28;20056;-61
2023/10/11 01:51:27;;;;;;;29.53;14.23;;;;;;;;;;5066550;28;20048;-61
2023/10/11 01:53:56;;;;;;;24.70;12.83;;;;;;;;;;5070650;28;20091;-61
2023/10/11 01:56:26;;;;;;;29.27;13.33;;;;;;;;;;5070838;28;20081;-61
2023/10/11 01:59:01;;;;;;;23.83;14.00;;;;;;;;;;5070307;28;20323;-61
2023/10/11 02:01:30;;;;;;;29.50;14.00;;;;;;;;;;5055679;28;20171;-61
2023/10/11 02:04:00;;;;;;;33.43;14.93;;;;;;;;;;5050765;28;20049;-62
2023/10/11 02:06:31;;;;;;;36.63;14.80;;;;;;;;;;5050962;28;20518;-61
2023/10/11 02:08:57;;;;;;;23.97;14.13;;;;;;;;;;5050507;28;20392;-61
2023/10/11 02:11:24;;;;;;;33.13;15.30;;;;;;;;;;5050431;28;20052;-61
2023/10/11 02:13:51;;;;;;;33.40;14.73;;;;;;;;;;5050448;28;20049;-61
2023/10/11 02:16:17;;;;;;;25.50;14.20;;;;;;;;;;5050950;28;20130;-61
2023/10/11 02:18:44;;;;;;;30.60;14.97;;;;;;;;;;5049982;28;20210;-61
2023/10/11 02:21:10;;;;;;;35.80;15.00;;;;;;;;;;5050446;28;20041;-62
2023/10/11 02:23:39;;;;;;;31.37;14.30;;;;;;;;;;5049963;28;20048;-61
2023/10/11 02:26:12;;;;;;;28.27;13.60;;;;;;;;;;5049781;28;20064;-62
2023/10/11 02:28:39;;;;;;;28.42;13.60;;;;;;;;;;5067092;28;20052;-62
2023/10/11 02:31:06;;;;;;;29.27;13.43;;;;;;;;;;5070431;28;20079;-62
2023/10/11 02:33:33;;;;;;;29.57;14.27;;;;;;;;;;5070121;28;20495;-61
2023/10/11 02:36:08;;;;;;;33.07;15.37;;;;;;;;;;5069607;28;20214;-61
2023/10/11 02:38:38;;;;;;;28.17;14.40;;;;;;;;;;5070181;28;20421;-61
2023/10/11 02:41:04;;;;;;;27.80;14.10;;;;;;;;;;5070185;28;20419;-61
2023/10/11 02:43:40;;;;;;;27.53;14.90;;;;;;;;;;5069338;28;20036;-61
2023/10/11 02:46:11;;;;;;;24.33;14.50;;;;;;;;;;5069851;28;20048;-61
2023/10/11 02:48:37;;;;;;;30.30;14.90;;;;;;;;;;5070176;28;20051;-62
2023/10/11 02:51:13;;;;;;;32.00;14.70;;;;;;;;;;5068998;28;20044;-62
2023/10/11 02:53:39;;;;;;;29.80;14.20;;;;;;;;;;5070077;28;20553;-62
2023/10/11 02:56:05;;;;;;;28.43;14.37;;;;;;;;;;5069670;28;20117;-62
2023/10/11 02:58:31;;;;;;;24.53;13.77;;;;;;;;;;5069772;28;20048;-61
2023/10/11 03:01:05;;;;;;;37.07;15.17;;;;;;;;;;5069314;28;20045;-61
2023/10/11 03:03:31;;;;;;;29.60;13.33;;;;;;;;;;5069391;28;20088;-62
2023/10/11 03:05:57;;;;;;;31.80;14.77;;;;;;;;;;5069704;28;20584;-62
2023/10/11 03:08:26;;;;;;;26.57;13.10;;;;;;;;;;5069497;28;20256;-62
2023/10/11 03:11:04;;;;;;;25.50;13.33;;;;;;;;;;5069216;28;20135;-61
2023/10/11 03:13:41;;;;;;;29.60;14.13;;;;;;;;;;5069408;28;20040;-61
2023/10/11 03:16:11;;;;;;;22.60;13.47;;;;;;;;;;5064132;28;20059;-61
2023/10/11 03:18:39;;;;;;;31.40;14.20;;;;;;;;;;5049576;28;20052;-62
2023/10/11 03:21:16;;;;;;;27.93;13.57;;;;;;;;;;5048617;28;20049;-61
2023/10/11 03:23:47;;;;;;;27.53;14.03;;;;;;;;;;5049639;28;20045;-70
2023/10/11 03:26:19;;;;;;;24.30;14.23;;;;;;;;;;5048894;28;20045;-62
2023/10/11 03:28:45;;;;;;;32.93;15.23;;;;;;;;;;5049560;28;20127;-62
2023/10/11 03:31:15;;;;;;;29.40;14.27;;;;;;;;;;5049290;28;20045;-61
2023/10/11 03:33:41;;;;;;;30.43;14.20;;;;;;;;;;5048858;28;20073;-61
2023/10/11 03:36:17;;;;;;;28.80;13.67;;;;;;;;;;5048778;28;20055;-62
2023/10/11 03:38:51;;;;;;;28.53;13.73;;;;;;;;;;5048424;28;20061;-61
2023/10/11 03:41:17;;;;;;;27.50;14.63;;;;;;;;;;5049060;28;20490;-61
2023/10/11 03:43:45;;;;;;;28.20;14.00;;;;;;;;;;5048977;28;20064;-61
2023/10/11 03:46:15;;;;;;;26.73;13.53;;;;;;;;;;5048135;28;20144;-62
2023/10/11 03:48:44;;;;;;;38.87;15.30;;;;;;;;;;5048982;28;20048;-61
2023/10/11 03:51:19;;;;;;;25.43;13.47;;;;;;;;;;5048619;28;20200;-61
2023/10/11 03:53:47;;;;;;;24.57;11.57;;;;;;;;;;5048898;28;20700;-61
2023/10/11 03:56:13;;;;;;;28.57;13.70;;;;;;;;;;5054687;28;20511;-61
2023/10/11 03:58:39;;;;;;;22.10;11.83;;;;;;;;;;5048618;28;20499;-61
2023/10/11 04:03:33;;;;;;;26.00;13.37;;;;;;;;;;5048680;28;20048;-61
2023/10/11 04:05:59;;;;;;;24.97;12.73;;;;;;;;;;5058013;28;20059;-61
2023/10/11 04:08:26;;;;;;;26.70;14.40;;;;;;;;;;5068437;28;20089;-61
2023/10/11 04:10:53;;;;;;;25.27;12.93;;;;;;;;;;5068465;28;20051;-61
2023/10/11 04:13:25;;;;;;;28.37;12.63;;;;;;;;;;5067782;28;20085;-61
2023/10/11 04:15:52;;;;;;;26.27;13.10;;;;;;;;;;5060948;28;20363;-61
2023/10/11 04:18:33;;;;;;;25.87;13.60;;;;;;;;;;5064303;28;20044;-62
2023/10/11 04:21:16;;;;;;;26.93;11.87;;;;;;;;;;5068565;28;20426;-61
2023/10/11 04:23:45;;;;;;;24.88;12.10;;;;;;;;;;5067658;28;20054;-62
2023/10/11 04:28:58;;;;;;;32.10;13.50;;;;;;;;;;5048190;28;20103;-61
2023/10/11 04:31:31;;;;;;;30.70;13.37;;;;;;;;;;5048547;28;20144;-62
2023/10/11 04:33:59;;;;;;;22.63;12.43;;;;;;;;;;5048240;28;20049;-61
2023/10/11 04:36:25;;;;;;;28.60;12.33;;;;;;;;;;5051718;28;20049;-62
2023/10/11 04:38:52;;;;;;;27.10;15.00;;;;;;;;;;5046871;28;20056;-61
2023/10/11 04:41:19;;;;;;;25.63;14.00;;;;;;;;;;5048407;28;20119;-62
2023/10/11 04:44:03;;;;;;;32.23;14.70;;;;;;;;;;5047485;28;20072;-61
2023/10/11 04:46:30;;;;;;;29.73;13.73;;;;;;;;;;5047541;28;20613;-61
2023/10/11 04:49:17;;;;;;;25.23;13.93;;;;;;;;;;5048033;28;20041;-62
2023/10/11 04:51:45;;;;;;;25.90;13.93;;;;;;;;;;5047974;28;20052;-61
2023/10/11 04:54:14;;;;;;;31.17;13.33;;;;;;;;;;5048043;28;20098;-62
2023/10/11 04:59:17;;;;;;;27.50;14.70;;;;;;;;;;5047611;28;20195;-62
2023/10/11 05:04:14;;;;;;;32.13;14.10;;;;;;;;;;5047986;28;20109;-61
2023/10/11 05:06:41;;;;;;;30.53;14.73;;;;;;;;;;5048061;28;20053;-61
2023/10/11 05:11:50;;;;;;;29.97;14.43;;;;;;;;;;5059035;28;20167;-61
2023/10/11 05:19:40;;;;;;;36.77;16.63;;;;;;;;;;5048018;28;20044;-62
2023/10/11 05:22:15;;;;;;;29.00;16.37;;;;;;;;;;5061070;28;20074;-62
2023/10/11 05:25:12;;;;;;;25.03;14.53;;;;;;;;;;5067960;28;20097;-61
2023/10/11 05:30:16;;;;;;;31.40;17.17;;;;;;;;;;5056354;28;20092;-61
2023/10/11 05:32:49;;;;;;;33.33;16.33;;;;;;;;;;5051764;28;20557;-62
2023/10/11 05:35:24;;;;;;;29.08;16.45;;;;;;;;;;5051484;28;20414;-61
2023/10/11 05:51:40;;;;;;;37.77;18.87;;;;;;;;;;5070229;28;20143;-61
2023/10/11 05:54:11;;;;;;;35.73;19.67;;;;;;;;;;5071307;28;20051;-61
2023/10/11 05:56:45;;;;;;;36.83;19.40;;;;;;;;;;5070684;28;20052;-62
2023/10/11 05:59:14;;;;;;;36.07;18.93;;;;;;;;;;5070909;28;20494;-62
2023/10/11 06:01:43;;;;;;;34.53;19.60;;;;;;;;;;5057890;28;20045;-62
2023/10/11 06:04:13;;;;;;;35.30;19.50;;;;;;;;;;5049727;28;20503;-61
2023/10/11 06:06:42;;;;;;;38.63;20.20;;;;;;;;;;5050878;28;20076;-61
2023/10/11 06:09:16;;;;;;;32.23;19.23;;;;;;;;;;5050319;28;20056;-62
2023/10/11 06:11:47;;;;;;;38.63;20.10;;;;;;;;;;5058687;28;20077;-61
2023/10/11 06:14:16;;;;;;;42.50;21.77;;;;;;;;;;5050716;28;20529;-61
2023/10/11 06:16:43;;;;;;;44.77;21.07;;;;;;;;;;5050225;28;20132;-61
2023/10/11 06:19:19;;;;;;;33.33;19.53;;;;;;;;;;5050384;28;20115;-61
2023/10/11 06:22:09;;;;;;;39.87;19.90;;;;;;;;;;5051370;28;20049;-62
2023/10/11 06:24:38;;;;;;;38.97;19.87;;;;;;;;;;5069354;28;20059;-62
2023/10/11 06:29:45;;;;;;;37.00;18.92;;;;;;;;;;5060520;28;20114;-61
2023/10/11 06:32:11;;;;;;;35.60;18.27;;;;;;;;;;5067199;28;20498;-61
2023/10/11 06:34:38;;;;;;;36.30;18.53;;;;;;;;;;5064830;28;20037;-61
2023/10/11 06:37:06;;;;;;;32.37;19.20;;;;;;;;;;5047733;28;21044;-62
2023/10/11 06:42:21;;;;;;;35.80;17.93;;;;;;;;;;5060562;28;20190;-61
2023/10/11 06:44:58;;;;;;;39.37;18.83;;;;;;;;;;5069216;28;20056;-62
2023/10/11 06:47:25;;;;;;;36.90;18.13;;;;;;;;;;5064164;28;20064;-61
2023/10/11 06:49:55;;;;;;;40.63;18.50;;;;;;;;;;5056644;28;20427;-61
2023/10/11 06:52:25;;;;;;;36.50;18.87;;;;;;;;;;5052012;28;20521;-61
2023/10/11 06:55:07;;;;;;;34.03;18.03;;;;;;;;;;5061293;28;20083;-61
2023/10/11 06:57:39;;;;;;;35.07;18.20;;;;;;;;;;5069130;28;20510;-62
2023/10/11 07:00:23;;;;;;;33.97;16.97;;;;;;;;;;5056366;28;20048;-62
2023/10/11 07:03:06;;;;;;;35.20;18.17;;;;;;;;;;5066408;28;20044;-61
2023/10/11 07:05:34;;;;;;;35.15;19.23;;;;;;;;;;5068545;28;20514;-62
2023/10/11 07:08:04;;;;;;;40.57;19.67;;;;;;;;;;5070091;28;20052;-61
2023/10/11 07:10:33;;;;;;;31.37;18.37;;;;;;;;;;5068959;28;20106;-61
2023/10/11 07:13:07;;;;;;;33.37;17.90;;;;;;;;;;5067312;28;20051;-62
2023/10/11 07:15:40;;;;;;;38.30;18.77;;;;;;;;;;5068521;28;20059;-68
2023/10/11 07:18:08;;;;;;;41.65;19.98;;;;;;;;;;5068689;28;20088;-62
2023/10/11 07:20:49;;;;;;;34.10;18.50;;;;;;;;;;5067180;28;20045;-66
2023/10/11 07:23:21;;;;;;;41.93;19.63;;;;;;;;;;5068346;28;20072;-61
2023/10/11 07:25:49;;;;;;;32.53;19.33;;;;;;;;;;5065609;28;20429;-61
2023/10/11 07:28:18;;;;;;;39.80;20.47;;;;;;;;;;5061715;28;20059;-61
2023/10/11 07:30:47;;;;;;;41.20;20.13;;;;;;;;;;5055580;28;20126;-60
2023/10/11 07:33:13;;;;;;;36.07;20.00;;;;;;;;;;5059461;28;20145;-60
2023/10/11 07:35:46;;;;;;;38.20;20.47;;;;;;;;;;5069541;28;20090;-61
2023/10/11 07:38:14;;;;;;;43.30;20.13;;;;;;;;;;5050822;28;20060;-61
2023/10/11 07:40:46;;;;;;;41.40;21.10;;;;;;;;;;5060679;28;20055;-61
2023/10/11 07:43:16;;;;;;;38.13;20.53;;;;;;;;;;5068423;28;20048;-61
2023/10/11 07:45:47;;;;;;;37.63;22.13;;;;;;;;;;5055973;28;20057;-61
2023/10/11 07:48:14;;;;;;;41.43;22.73;;;;;;;;;;5068004;28;20071;-62
2023/10/11 07:50:42;;;;;;;45.47;21.43;;;;;;;;;;5058312;28;20045;-61
2023/10/11 07:53:13;;;;;;;35.23;20.33;;;;;;;;;;5058264;28;20048;-61
2023/10/11 07:55:40;;;;;;;44.80;23.93;;;;;;;;;;5049733;28;20048;-61
2023/10/11 07:58:08;;;;;;;40.07;22.83;;;;;;;;;;5059399;28;20403;-62
2023/10/11 08:00:40;;;;;;;46.50;24.87;;;;;;;;;;5052130;28;20140;-61
2023/10/11 08:03:08;;;;;;;50.85;25.48;;;;;;;;;;5053953;28;20059;-61
2023/10/11 08:05:35;;;;;;;50.50;24.43;;;;;;;;;;5055934;28;20118;-61
2023/10/11 08:08:01;;;;;;;45.13;24.10;;;;;;;;;;5068949;28;20040;-61
2023/10/11 08:10:33;;;;;;;49.80;23.50;;;;;;;;;;5063089;28;20154;-61
2023/10/11 08:12:59;;;;;;;49.57;24.67;;;;;;;;;;5058739;28;20119;-61
2023/10/11 08:15:25;;;;;;;46.40;25.13;;;;;;;;;;5054145;28;20041;-61
2023/10/11 08:17:52;;;;;;;47.43;22.40;;;;;;;;;;5054568;28;20342;-61
2023/10/11 08:20:18;;;;;;;44.23;22.33;;;;;;;;;;5068246;28;20048;-61
2023/10/11 08:22:47;;;;;;;42.63;24.13;;;;;;;;;;5057082;28;20053;-61
2023/10/11 08:25:25;;;;;;;44.17;22.60;;;;;;;;;;5057450;28;20051;-61
2023/10/11 08:28:04;;;;;;;51.53;23.17;;;;;;;;;;5067616;28;20392;-61
2023/10/11 08:30:31;;;;;;;43.33;23.60;;;;;;;;;;5066738;28;20049;-61
2023/10/11 08:32:57;;;;;;;50.37;22.97;;;;;;;;;;5060103;28;20048;-61
2023/10/11 08:35:31;;;;;;;54.40;23.37;;;;;;;;;;5067489;28;20063;-61
2023/10/11 08:38:02;;;;;;;46.53;22.07;;;;;;;;;;5060592;28;20060;-62
2023/10/11 08:40:35;;;;;;;46.73;22.17;;;;;;;;;;5059264;28;20415;-61
2023/10/11 08:43:02;;;;;;;39.58;22.13;;;;;;;;;;5066268;28;20072;-61
2023/10/11 08:45:32;;;;;;;44.00;21.30;;;;;;;;;;5060458;28;20052;-62
2023/10/11 08:47:59;;;;;;;52.83;25.30;;;;;;;;;;5064435;28;20102;-61
2023/10/11 08:50:26;;;;;;;50.17;23.97;;;;;;;;;;5060481;28;20040;-61
2023/10/11 08:52:54;;;;;;;45.50;23.27;;;;;;;;;;5067813;28;20102;-61
2023/10/11 08:55:24;;;;;;;49.43;23.40;;;;;;;;;;5058665;28;20052;-61
2023/10/11 08:57:53;;;;;;;43.03;23.73;;;;;;;;;;5047064;28;20051;-62
2023/10/11 09:00:29;;;;;;;43.23;21.77;;;;;;;;;;5054457;28;20048;-61
2023/10/11 09:03:17;;;;;;;41.67;21.10;;;;;;;;;;5067047;28;20048;-62
2023/10/11 09:05:43;;;;;;;47.90;22.53;;;;;;;;;;5068071;28;20456;-60
2023/10/11 09:08:47;;;;;;;48.50;23.20;;;;;;;;;;5072404;28;20525;-62
2023/10/11 09:13:53;;;;;;;45.97;22.63;;;;;;;;;;5071953;28;20183;-62
2023/10/11 09:16:34;;;;;;;41.83;23.07;;;;;;;;;;5074465;28;20609;-62
2023/10/11 09:19:06;;;;;;;45.67;22.07;;;;;;;;;;5068141;28;20083;-61
2023/10/11 09:21:35;;;;;;;44.63;21.83;;;;;;;;;;5074128;28;21162;-60
2023/10/11 09:24:01;;;;;;;43.80;23.80;;;;;;;;;;5066423;28;20057;-60
2023/10/11 09:26:35;;;;;;;45.70;22.70;;;;;;;;;;5055514;28;20126;-60
2023/10/11 09:29:03;;;;;;;38.57;21.00;;;;;;;;;;5067874;28;20099;-60
2023/10/11 09:31:32;;;;;;;52.43;24.13;;;;;;;;;;5071779;28;20084;-61
2023/10/11 09:34:04;;;;;;;41.43;22.27;;;;;;;;;;5072507;28;20094;-60
2023/10/11 09:36:31;;;;;;;40.23;20.90;;;;;;;;;;5061362;28;20051;-60
2023/10/11 09:38:57;;;;;;;42.77;20.80;;;;;;;;;;5072785;28;20084;-61
2023/10/11 09:41:40;;;;;;;41.97;19.70;;;;;;;;;;5074048;28;20054;-61
2023/10/11 09:44:07;;;;;;;38.53;21.07;;;;;;;;;;5070869;28;20049;-61
2023/10/11 09:46:37;;;;;;;41.07;20.00;;;;;;;;;;5069649;28;20309;-61
2023/10/11 09:49:04;;;;;;;37.67;18.83;;;;;;;;;;5069413;28;20067;-61
2023/10/11 09:51:31;;;;;;;37.27;17.87;;;;;;;;;;5072246;28;20056;-60
2023/10/11 09:54:07;;;;;;;39.00;20.30;;;;;;;;;;5074278;28;20094;-60
2023/10/11 09:56:48;;;;;;;32.90;16.63;;;;;;;;;;5056331;28;20127;-60
2023/10/11 09:59:34;;;;;;;33.07;16.60;;;;;;;;;;5071014;28;20053;-61
2023/10/11 10:02:03;;;;;;;29.60;15.53;;;;;;;;;;5070617;28;20053;-61
2023/10/11 10:04:51;;;;;;;35.17;16.97;;;;;;;;;;5065848;28;20045;-61
2023/10/11 10:08:00;;;;;;;40.53;17.77;;;;;;;;;;5065007;28;20047;-61
2023/10/11 10:10:15;;;;;;;37.13;16.63;;;;;;;;;;5065931;28;20381;-60
2023/10/11 10:12:56;;;;;;;35.53;17.00;;;;;;;;;;5069879;28;20131;-61
2023/10/11 10:15:28;;;;;;;38.63;19.83;;;;;;;;;;5069509;28;20074;-61
2023/10/11 10:18:00;;;;;;;44.60;21.97;;;;;;;;;;5063951;28;20053;-61
2023/10/11 10:20:41;;;;;;;37.37;19.77;;;;;;;;;;5057358;28;20190;-61
2023/10/11 10:23:16;;;;;;;37.80;18.00;;;;;;;;;;5058814;28;20052;-61
2023/10/11 10:25:46;;;;;;;35.40;18.00;;;;;;;;;;5058073;28;20479;-61
2023/10/11 10:28:31;;;;;;;36.40;16.40;;;;;;;;;;5057950;28;20052;-61
2023/10/11 10:31:16;;;;;;;31.43;15.80;;;;;;;;;;5057808;28;20091;-61
2023/10/11 10:33:44;;;;;;;29.37;13.07;;;;;;;;;;5066657;28;20127;-60
2023/10/11 10:36:28;;;;;;;30.00;11.97;;;;;;;;;;5060626;28;20087;-61
2023/10/11 10:39:00;;;;;;;26.70;12.17;;;;;;;;;;5058280;28;20073;-61
2023/10/11 10:41:27;;;;;;;15.87;9.77;;;;;;;;;;5068712;28;20045;-61
2023/10/11 10:44:09;;;;;;;20.73;10.93;;;;;;;;;;5063180;28;20053;-61
2023/10/11 10:46:36;;;;;;;25.42;9.88;;;;;;;;;;5069021;28;20094;-60
2023/10/11 10:49:02;;;;;;;16.07;8.80;;;;;;;;;;5054560;28;20037;-60
2023/10/11 10:51:35;;;;;;;21.67;9.43;;;;;;;;;;5051800;28;20490;-61
2023/10/11 10:54:14;;;;;;;15.02;7.55;;;;;;;;;;5055349;28;20076;-61
2023/10/11 10:56:46;;;;;;;18.33;8.50;;;;;;;;;;5048854;28;20049;-61
2023/10/11 10:59:20;;;;;;;13.07;6.35;;;;;;;;;;5064739;28;20040;-61
2023/10/11 11:01:46;;;;;;;12.73;6.20;;;;;;;;;;5057344;28;20048;-61
2023/10/11 11:04:13;;;;;;;10.30;5.30;;;;;;;;;;5065513;28;20115;-61
2023/10/11 11:06:40;;;;;;;11.23;5.27;;;;;;;;;;5059781;28;20040;-61
2023/10/11 11:09:13;;;;;;;9.37;5.30;;;;;;;;;;5062947;28;20516;-61
2023/10/11 11:11:40;;;;;;;12.97;5.07;;;;;;;;;;5062793;28;20056;-64
2023/10/11 11:14:13;;;;;;;12.93;5.40;;;;;;;;;;5065519;28;20097;-65
2023/10/11 11:16:39;;;;;;;;;;;;;;;;;;5059101;28;20048;-61
2023/10/11 11:19:25;;;;;;;14.87;4.83;;;;;;;;;;5067271;28;19936;-61
2023/10/11 11:22:01;;;;;;;12.87;5.30;;;;;;;;;;5068784;28;20464;-61
2023/10/11 11:24:34;;;;;;;15.63;5.43;;;;;;;;;;5068940;28;20170;-61
2023/10/11 11:27:06;;;;;;;10.90;5.18;;;;;;;;;;5068087;28;20048;-63
2023/10/11 11:29:32;;;;;;;13.87;6.37;;;;;;;;;;5066980;28;20083;-61
2023/10/11 11:31:59;;;;;;;10.60;4.83;;;;;;;;;;5061385;28;20510;-61
2023/10/11 11:34:33;;;;;;;11.07;5.47;;;;;;;;;;5049303;28;20041;-61
2023/10/11 11:37:00;;;;;;;12.20;4.73;;;;;;;;;;5048485;28;20061;-61
2023/10/11 11:39:27;;;;;;;11.90;4.83;;;;;;;;;;5047911;28;20049;-60
2023/10/11 11:41:55;;;;;;;9.17;4.13;;;;;;;;;;5060282;28;20040;-61
2023/10/11 11:44:22;;;;;;;13.67;4.50;;;;;;;;;;5058981;28;20067;-61
2023/10/11 11:46:51;;;;;;;12.67;4.90;;;;;;;;;;5052086;28;20106;-61
2023/10/11 11:49:21;;;;;;;11.47;4.20;;;;;;;;;;5068004;28;20040;-61
2023/10/11 11:51:50;;;;;;;12.63;4.80;;;;;;;;;;5068755;28;20072;-61
2023/10/11 11:54:18;;;;;;;15.83;5.00;;;;;;;;;;5061676;28;20037;-63
2023/10/11 11:56:45;;;;;;;15.23;4.80;;;;;;;;;;5063947;28;20048;-60
2023/10/11 11:59:17;;;;;;;11.10;4.23;;;;;;;;;;5068495;28;20056;-61
2023/10/11 12:01:52;;;;;;;13.43;5.18;;;;;;;;;;5068631;28;20514;-61
2023/10/11 12:04:24;;;;;;;10.30;4.43;;;;;;;;;;5068758;28;20499;-60
2023/10/11 12:06:50;;;;;;;17.10;5.73;;;;;;;;;;5053162;28;20120;-61
2023/10/11 12:09:21;;;;;;;10.60;5.30;;;;;;;;;;5048260;28;20037;-60
2023/10/11 12:11:50;;;;;;;13.07;5.40;;;;;;;;;;5047912;28;20144;-61
2023/10/11 12:14:16;;;;;;;13.73;5.90;;;;;;;;;;5048487;28;20048;-61
2023/10/11 12:16:42;;;;;;;11.87;4.87;;;;;;;;;;5059875;28;20387;-60
2023/10/11 12:19:11;;;;;;;10.87;4.67;;;;;;;;;;5048643;28;20099;-60
2023/10/11 12:21:37;;;;;;;10.90;4.90;;;;;;;;;;5047922;28;20392;-61
2023/10/11 12:24:11;;;;;;;15.23;5.60;;;;;;;;;;5048451;28;20044;-61
2023/10/11 12:26:41;;;;;;;12.57;5.17;;;;;;;;;;5048358;28;20451;-61
2023/10/11 12:29:08;;;;;;;13.97;5.07;;;;;;;;;;5059574;28;20045;-61
2023/10/11 12:31:38;;;;;;;9.27;4.47;;;;;;;;;;5068344;28;20396;-60
2023/10/11 12:34:04;;;;;;;11.67;4.10;;;;;;;;;;5066270;28;20442;-61
2023/10/11 12:36:30;;;;;;;12.13;4.90;;;;;;;;;;5066252;28;20051;-61
2023/10/11 12:38:57;;;;;;;9.83;4.87;;;;;;;;;;5067751;28;20060;-61
2023/10/11 12:41:23;;;;;;;12.07;4.50;;;;;;;;;;5067988;28;20121;-61
2023/10/11 12:43:49;;;;;;;12.40;4.63;;;;;;;;;;5068260;28;20446;-61
2023/10/11 12:46:17;;;;;;;11.97;4.30;;;;;;;;;;5048674;28;20058;-61
2023/10/11 12:48:43;;;;;;;10.43;4.67;;;;;;;;;;5065940;28;20529;-60
2023/10/11 12:51:10;;;;;;;10.87;4.67;;;;;;;;;;5067760;28;20036;-61
2023/10/11 12:53:36;;;;;;;9.63;3.93;;;;;;;;;;5067887;28;20521;-61
2023/10/11 12:56:02;;;;;;;11.77;4.77;;;;;;;;;;5053215;28;20049;-60
2023/10/11 12:58:38;;;;;;;9.37;4.30;;;;;;;;;;5048654;28;20048;-60
2023/10/11 13:01:11;;;;;;;13.93;4.80;;;;;;;;;;5067355;28;20520;-61
2023/10/11 13:03:40;;;;;;;10.10;5.15;;;;;;;;;;5067905;28;20536;-61
2023/10/11 13:06:09;;;;;;;11.50;5.13;;;;;;;;;;5055362;28;20506;-61
2023/10/11 13:08:37;;;;;;;10.63;5.67;;;;;;;;;;5047032;28;20049;-61
2023/10/11 13:11:05;;;;;;;12.90;5.37;;;;;;;;;;5047494;28;20495;-60
2023/10/11 13:13:32;;;;;;;11.17;5.37;;;;;;;;;;5048333;28;20227;-60
2023/10/11 13:16:01;;;;;;;11.63;5.60;;;;;;;;;;5047634;28;20136;-61
2023/10/11 13:18:37;;;;;;;11.57;6.07;;;;;;;;;;5047031;28;20044;-60
2023/10/11 13:21:11;;;;;;;17.77;6.93;;;;;;;;;;5050121;28;20029;-61
2023/10/11 13:23:39;;;;;;;11.97;6.47;;;;;;;;;;5060477;28;20060;-61
2023/10/11 13:26:09;;;;;;;14.47;6.27;;;;;;;;;;5061860;28;20098;-61
2023/10/11 13:28:38;;;;;;;14.20;6.40;;;;;;;;;;5047378;28;20041;-61
2023/10/11 13:31:04;;;;;;;9.40;5.63;;;;;;;;;;5046294;28;20102;-61
2023/10/11 13:33:30;;;;;;;15.53;6.73;;;;;;;;;;5047651;28;20049;-61
2023/10/11 13:36:00;;;;;;;13.17;5.90;;;;;;;;;;5047518;28;20049;-61
2023/10/11 13:38:30;;;;;;;16.33;6.37;;;;;;;;;;5049592;28;20049;-61
2023/10/11 13:40:56;;;;;;;12.47;6.33;;;;;;;;;;5049226;28;20056;-61
2023/10/11 13:43:22;;;;;;;19.63;6.40;;;;;;;;;;5046990;28;20570;-61
2023/10/11 13:46:06;;;;;;;13.83;6.60;;;;;;;;;;5047285;28;20095;-61
2023/10/11 13:48:41;;;;;;;14.03;5.73;;;;;;;;;;5052447;28;20075;-61
2023/10/11 13:51:08;;;;;;;12.83;5.33;;;;;;;;;;5050797;28;20106;-61
2023/10/11 13:53:41;;;;;;;15.53;5.97;;;;;;;;;;5052543;28;20053;-60
2023/10/11 13:56:20;;;;;;;12.27;5.75;;;;;;;;;;5066149;28;20574;-60
2023/10/11 13:58:46;;;;;;;13.77;6.33;;;;;;;;;;5051016;28;20056;-60
2023/10/11 14:01:37;;;;;;;12.37;5.47;;;;;;;;;;5050577;28;20067;-60
2023/10/11 14:04:13;;;;;;;12.17;5.33;;;;;;;;;;5051069;28;20419;-60
2023/10/11 14:06:43;;;;;;;12.37;5.57;;;;;;;;;;5052528;28;20052;-60
2023/10/11 14:09:29;;;;;;;14.17;5.93;;;;;;;;;;5050638;28;20599;-60
2023/10/11 14:11:55;;;;;;;16.30;6.07;;;;;;;;;;5070760;28;20054;-60
2023/10/11 14:14:24;;;;;;;13.07;4.83;;;;;;;;;;5070533;28;20051;-60
2023/10/11 14:16:50;;;;;;;16.90;5.43;;;;;;;;;;5070233;28;20052;-60
2023/10/11 14:19:16;;;;;;;13.80;5.00;;;;;;;;;;5060075;28;20506;-61
2023/10/11 14:21:51;;;;;;;16.33;5.27;;;;;;;;;;5070666;28;20155;-60
2023/10/11 14:24:18;;;;;;;8.90;4.80;;;;;;;;;;5070643;28;20045;-60
2023/10/11 14:26:44;;;;;;;10.03;4.57;;;;;;;;;;5070641;28;20051;-60
2023/10/11 14:29:10;;;;;;;17.77;4.43;;;;;;;;;;5065288;28;20040;-60
2023/10/11 14:31:36;;;;;;;12.73;4.80;;;;;;;;;;5066741;28;20245;-60
2023/10/11 14:34:04;;;;;;;10.83;3.97;;;;;;;;;;5070243;28;20127;-60
2023/10/11 14:36:31;;;;;;;11.33;4.03;;;;;;;;;;5068132;28;20497;-60
2023/10/11 14:38:57;;;;;;;9.33;4.07;;;;;;;;;;5065470;28;20633;-60
2023/10/11 14:41:24;;;;;;;11.20;3.90;;;;;;;;;;5049071;28;20124;-60
2023/10/11 14:43:50;;;;;;;13.47;4.23;;;;;;;;;;5049176;28;20131;-60
2023/10/11 14:46:19;;;;;;;15.50;3.93;;;;;;;;;;5051743;28;20040;-60
2023/10/11 14:48:48;;;;;;;13.60;4.77;;;;;;;;;;5069737;28;20053;-60
2023/10/11 14:51:15;;;;;;;8.83;3.93;;;;;;;;;;5068282;28;20047;-60
2023/10/11 14:53:41;;;;;;;10.47;3.73;;;;;;;;;;5070100;28;20044;-60
2023/10/11 14:56:07;;;;;;;12.07;4.67;;;;;;;;;;5055722;28;20049;-60
2023/10/11 14:58:34;;;;;;;11.00;4.13;;;;;;;;;;5066323;28;20047;-60
2023/10/11 15:01:12;;;;;;;10.77;4.10;;;;;;;;;;5058951;28;20048;-60
2023/10/11 15:03:39;;;;;;;15.70;4.53;;;;;;;;;;5063079;28;20052;-60
2023/10/11 15:06:14;;;;;;;9.73;4.10;;;;;;;;;;5067803;28;20123;-60
2023/10/11 15:08:43;;;;;;;11.47;4.47;;;;;;;;;;5061872;28;20049;-60
2023/10/11 15:11:11;;;;;;;10.43;4.23;;;;;;;;;;5063446;28;20083;-60
2023/10/11 15:13:37;;;;;;;12.30;4.03;;;;;;;;;;5066576;28;20041;-60
2023/10/11 15:16:04;;;;;;;11.07;4.43;;;;;;;;;;5051521;28;20049;-60
2023/10/11 15:18:32;;;;;;;9.77;4.60;;;;;;;;;;5069232;28;20437;-60
2023/10/11 15:20:59;;;;;;;13.10;4.33;;;;;;;;;;5068508;28;20098;-60